Time;durP1;ratioP1;P1;durP2;ratioP2;P2;SDS_P1;SDS_P2;PMS_P1;PMS_P2;Temp;Humidity;BMP_temperature;BMP_pressure;BME280_temperature;BME280_humidity;BME280_pressure;Samples;Min_cycle;Max_cycle;Signal;HPM_P1;HPM_P2
2021/09/03 00:00:06;;;;;;;3.85;2.90;;;;;;;10.42;78.89;100042.62;1768980;81;21150;-70
2021/09/03 00:02:37;;;;;;;4.00;3.00;;;;;;;10.42;78.95;100043.93;1759781;80;21555;-70
2021/09/03 00:05:08;;;;;;;3.55;2.70;;;;;;;10.43;79.14;100036.48;1768734;80;21159;-70
2021/09/03 00:07:36;;;;;;;4.00;2.60;;;;;;;10.45;79.09;100032.52;1771361;79;20991;-70
2021/09/03 00:10:09;;;;;;;5.78;3.00;;;;;;;10.45;79.17;100030.75;1772412;80;20913;-70
2021/09/03 00:12:36;;;;;;;3.87;2.70;;;;;;;10.46;79.21;100025.91;1771006;79;21584;-70
2021/09/03 00:15:07;;;;;;;3.37;2.47;;;;;;;10.47;79.27;100023.70;1768994;80;26279;-70
2021/09/03 00:17:34;;;;;;;4.22;3.52;;;;;;;10.47;79.34;100018.48;1770164;80;20986;-70
2021/09/03 00:20:00;;;;;;;4.03;2.80;;;;;;;10.47;79.43;100018.48;1770505;79;20988;-70
2021/09/03 00:26:13;;;;;;;6.55;3.37;;;;;;;10.51;79.60;100001.77;1773593;79;20906;-70
2021/09/03 00:28:41;;;;;;;3.20;2.83;;;;;;;10.52;79.77;99995.62;1773368;80;20953;-70
2021/09/03 00:31:07;;;;;;;3.47;2.60;;;;;;;10.55;79.80;100001.63;1773653;79;20876;-69
2021/09/03 00:33:34;;;;;;;5.08;3.02;;;;;;;10.56;79.85;99987.66;1763994;79;20907;-70
2021/09/03 00:36:00;;;;;;;4.30;2.93;;;;;;;10.57;79.84;99981.53;1773291;79;20992;-70
2021/09/03 00:38:27;;;;;;;4.25;2.75;;;;;;;10.57;79.94;99982.84;1773802;79;21856;-70
2021/09/03 00:40:54;;;;;;;4.20;3.42;;;;;;;10.58;80.01;99972.78;1773458;79;21423;-70
2021/09/03 00:43:20;;;;;;;4.17;3.02;;;;;;;10.57;80.07;99979.77;1773135;80;20885;-70
2021/09/03 00:45:47;;;;;;;4.78;3.30;;;;;;;10.59;80.15;99966.66;1772224;80;20931;-70
2021/09/03 00:48:13;;;;;;;4.47;3.47;;;;;;;10.60;80.26;99965.73;1774271;79;20901;-70
2021/09/03 00:50:41;;;;;;;5.22;3.12;;;;;;;10.59;80.29;99959.67;1775318;80;21059;-70
2021/09/03 00:53:08;;;;;;;4.33;2.85;;;;;;;10.60;80.36;99961.35;1775136;80;20920;-70
2021/09/03 00:55:35;;;;;;;4.53;3.30;;;;;;;10.61;80.48;99956.97;1775186;80;20905;-70
2021/09/03 00:58:01;;;;;;;4.42;3.40;;;;;;;10.62;80.53;99953.00;1775305;80;20899;-70
2021/09/03 01:00:28;;;;;;;3.80;2.97;;;;;;;10.65;80.57;99948.11;1748970;79;20987;-70
2021/09/03 01:02:54;;;;;;;6.62;3.98;;;;;;;10.65;80.67;99950.72;1768759;79;21045;-70
2021/09/03 01:05:23;;;;;;;6.92;3.75;;;;;;;10.68;80.80;99947.97;1754864;79;20904;-70
2021/09/03 01:07:51;;;;;;;7.80;4.30;;;;;;;10.69;80.86;99942.66;1748909;81;20908;-70
2021/09/03 01:10:22;;;;;;;6.70;4.17;;;;;;;10.73;80.93;99943.40;1748501;81;20923;-70
2021/09/03 01:12:50;;;;;;;7.65;4.60;;;;;;;10.75;80.99;99938.93;1750478;81;20966;-70
2021/09/03 01:15:17;;;;;;;4.50;3.55;;;;;;;10.78;81.11;99933.56;1746809;81;21070;-70
2021/09/03 01:17:44;;;;;;;8.38;4.05;;;;;;;10.80;81.11;99930.44;1752144;82;20883;-70
2021/09/03 01:20:12;;;;;;;7.03;4.17;;;;;;;10.82;81.20;99927.30;1757055;81;20868;-70
2021/09/03 01:22:39;;;;;;;5.17;3.85;;;;;;;10.85;81.31;99929.78;1754238;81;20919;-70
2021/09/03 01:25:08;;;;;;;8.88;4.53;;;;;;;10.87;81.28;99921.42;1754236;81;20912;-70
2021/09/03 01:27:35;;;;;;;6.58;4.95;;;;;;;10.90;81.42;99917.83;1749307;81;20989;-70
2021/09/03 01:30:04;;;;;;;5.40;4.08;;;;;;;10.93;81.44;99920.30;1752297;81;20987;-70
2021/09/03 01:32:31;;;;;;;5.95;3.92;;;;;;;10.94;81.56;99916.30;1745972;81;20908;-70
2021/09/03 01:34:58;;;;;;;6.47;4.55;;;;;;;10.94;81.55;99908.45;1745932;82;20958;-70
2021/09/03 01:37:24;;;;;;;7.72;4.75;;;;;;;10.96;81.64;99909.23;1741768;81;21439;-70
2021/09/03 01:39:51;;;;;;;9.55;5.95;;;;;;;10.96;81.68;99904.02;1742049;82;21474;-70
2021/09/03 01:42:17;;;;;;;8.80;4.78;;;;;;;10.98;81.80;99903.49;1748725;81;20845;-70
2021/09/03 01:44:44;;;;;;;8.10;5.33;;;;;;;10.98;81.93;99896.96;1741817;82;20903;-70
2021/09/03 01:47:11;;;;;;;9.28;5.33;;;;;;;10.98;81.87;99889.13;1742795;81;20939;-70
2021/09/03 01:49:38;;;;;;;10.05;6.08;;;;;;;11.00;82.00;99872.52;1747048;81;21525;-70
2021/09/03 01:52:05;;;;;;;9.58;5.33;;;;;;;11.01;82.16;99888.14;1752487;81;21048;-70
2021/09/03 01:54:31;;;;;;;8.45;5.47;;;;;;;11.03;82.17;99869.76;1749461;81;20884;-70
2021/09/03 01:56:58;;;;;;;8.25;6.12;;;;;;;11.04;82.30;99871.47;1746273;81;20935;-70
2021/09/03 01:59:25;;;;;;;10.13;6.67;;;;;;;11.07;82.44;99871.33;1750096;81;20912;-71
2021/09/03 02:01:52;;;;;;;11.18;6.35;;;;;;;11.13;82.56;99868.42;1747663;81;20936;-70
2021/09/03 02:04:18;;;;;;;11.43;6.62;;;;;;;11.21;82.70;99866.30;1746709;81;21103;-71
2021/09/03 02:06:45;;;;;;;9.93;6.83;;;;;;;11.29;82.75;99868.08;1729708;81;20907;-71
2021/09/03 02:09:12;;;;;;;8.10;5.97;;;;;;;11.37;82.85;99858.54;1741115;81;20949;-70
2021/09/03 02:11:39;;;;;;;12.10;6.73;;;;;;;11.46;83.02;99857.28;1745313;80;20889;-70
2021/09/03 02:14:06;;;;;;;9.50;6.12;;;;;;;11.53;83.04;99842.50;1707086;82;21444;-71
2021/09/03 02:16:33;;;;;;;9.75;7.17;;;;;;;11.63;83.24;99845.52;1739594;81;21036;-71
2021/09/03 02:19:00;;;;;;;15.97;8.73;;;;;;;11.70;83.16;99844.28;1738430;81;20881;-70
2021/09/03 02:21:26;;;;;;;12.90;8.15;;;;;;;11.77;83.21;99839.14;1743440;80;21056;-70
2021/09/03 02:23:53;;;;;;;12.55;8.43;;;;;;;11.85;83.28;99829.16;1740454;81;20927;-71
2021/09/03 02:26:20;;;;;;;14.13;8.85;;;;;;;11.90;83.37;99836.77;1721399;82;20967;-71
2021/09/03 02:28:46;;;;;;;16.93;9.18;;;;;;;11.96;83.40;99825.13;1733135;81;21836;-70
2021/09/03 02:31:13;;;;;;;16.73;9.10;;;;;;;12.02;83.40;99827.46;1730159;81;20874;-71
2021/09/03 02:33:40;;;;;;;17.07;9.73;;;;;;;12.07;83.59;99828.05;1730983;81;21440;-70
2021/09/03 02:36:07;;;;;;;16.63;9.80;;;;;;;12.12;83.61;99822.58;1725487;81;20867;-71
2021/09/03 02:38:33;;;;;;;15.20;9.83;;;;;;;12.15;83.73;99811.48;1735227;81;21540;-71
2021/09/03 02:41:03;;;;;;;14.65;9.60;;;;;;;12.20;83.83;99809.48;1721093;81;21105;-70
2021/09/03 02:43:30;;;;;;;21.00;9.75;;;;;;;12.23;83.84;99808.00;1751451;80;21088;-70
2021/09/03 02:45:56;;;;;;;15.03;9.88;;;;;;;12.25;83.99;99808.77;1744080;81;20933;-70
2021/09/03 02:48:23;;;;;;;15.63;10.33;;;;;;;12.31;83.99;99807.61;1743294;80;20914;-71
2021/09/03 02:50:56;;;;;;;18.00;10.28;;;;;;;12.33;84.10;99805.76;1745720;81;20882;-70
2021/09/03 02:53:23;;;;;;;18.00;10.03;;;;;;;12.38;84.15;99808.11;1731172;81;20909;-70
2021/09/03 02:55:50;;;;;;;13.57;9.37;;;;;;;12.39;84.31;99806.73;1739011;80;20917;-70
2021/09/03 02:58:16;;;;;;;16.95;11.00;;;;;;;12.42;84.31;99799.19;1751016;80;20990;-70
2021/09/03 03:00:43;;;;;;;18.50;10.28;;;;;;;12.45;84.41;99800.33;1750329;80;21446;-70
2021/09/03 03:03:10;;;;;;;16.42;10.70;;;;;;;12.50;84.43;99791.77;1731777;81;20993;-70
2021/09/03 03:05:36;;;;;;;17.13;10.30;;;;;;;12.52;84.48;99789.91;1726072;81;21938;-70
2021/09/03 03:08:04;;;;;;;18.77;10.37;;;;;;;12.53;84.60;99774.09;1699363;83;21043;-71
2021/09/03 03:10:33;;;;;;;15.23;9.73;;;;;;;12.56;84.61;99773.09;1733931;81;20897;-70
2021/09/03 03:13:06;;;;;;;13.53;8.95;;;;;;;12.59;84.61;99770.30;1750428;81;21512;-70
2021/09/03 03:15:28;;;;;;;18.65;9.25;;;;;;;12.60;84.68;99761.97;1743346;81;20920;-70
2021/09/03 03:17:55;;;;;;;12.53;9.40;;;;;;;12.60;84.72;99758.05;1749472;81;21012;-70
2021/09/03 03:20:22;;;;;;;12.55;9.15;;;;;;;12.61;84.66;99747.97;1756825;81;20935;-70
2021/09/03 03:22:49;;;;;;;14.78;9.23;;;;;;;12.60;84.67;99743.16;1753881;80;20904;-71
2021/09/03 03:25:16;;;;;;;13.27;9.00;;;;;;;12.57;84.70;99729.41;1755744;81;20902;-71
2021/09/03 03:27:42;;;;;;;13.45;8.80;;;;;;;12.53;84.74;99731.36;1750864;81;21741;-71
2021/09/03 03:30:10;;;;;;;15.28;9.00;;;;;;;12.48;84.76;99725.52;1755848;81;21509;-71
2021/09/03 03:32:37;;;;;;;11.93;8.58;;;;;;;12.45;84.82;99728.31;1753465;80;21443;-70
2021/09/03 03:35:05;;;;;;;13.22;8.38;;;;;;;12.40;84.90;99722.48;1748457;81;21498;-71
2021/09/03 03:37:31;;;;;;;13.35;8.73;;;;;;;12.38;84.97;99717.78;1751521;81;21427;-71
2021/09/03 03:39:58;;;;;;;12.13;9.03;;;;;;;12.34;85.01;99721.03;1756228;80;20937;-71
2021/09/03 03:42:37;;;;;;;16.17;8.95;;;;;;;12.31;85.06;99718.12;1755084;81;21084;-70
2021/09/03 03:45:05;;;;;;;14.05;8.48;;;;;;;12.28;85.10;99722.22;1753945;80;20936;-71
2021/09/03 03:47:31;;;;;;;13.15;7.95;;;;;;;12.25;85.16;99714.53;1755625;81;20931;-71
2021/09/03 03:49:58;;;;;;;12.75;7.72;;;;;;;12.24;85.17;99704.16;1750213;81;20887;-70
2021/09/03 03:52:25;;;;;;;11.95;8.08;;;;;;;12.18;85.26;99705.30;1758680;80;20928;-71
2021/09/03 03:54:52;;;;;;;16.43;9.17;;;;;;;12.14;85.27;99698.56;1752869;81;21053;-71
2021/09/03 03:57:18;;;;;;;14.57;8.53;;;;;;;12.11;85.34;99695.27;1733494;81;20933;-70
2021/09/03 03:59:45;;;;;;;14.10;9.40;;;;;;;12.10;85.44;99694.44;1754173;81;20924;-71
2021/09/03 04:02:12;;;;;;;15.57;8.93;;;;;;;12.07;85.45;99687.59;1747723;80;20904;-71
2021/09/03 04:04:39;;;;;;;11.97;8.00;;;;;;;12.05;85.49;99683.36;1750556;81;20970;-71
2021/09/03 04:07:06;;;;;;;16.62;8.50;;;;;;;12.05;85.52;99685.98;1758833;80;21887;-71
2021/09/03 04:09:32;;;;;;;13.25;8.93;;;;;;;12.04;85.60;99687.76;1755084;81;20896;-71
2021/09/03 04:11:59;;;;;;;13.50;8.03;;;;;;;12.04;85.63;99682.53;1751599;81;20928;-70
2021/09/03 04:14:26;;;;;;;18.77;8.57;;;;;;;12.05;85.64;99686.82;1754781;80;20912;-71
2021/09/03 04:16:52;;;;;;;13.23;8.53;;;;;;;12.05;85.74;99684.20;1749074;80;20911;-71
2021/09/03 04:19:19;;;;;;;11.53;7.92;;;;;;;12.08;85.83;99685.81;1750287;80;21038;-70
2021/09/03 04:21:46;;;;;;;13.25;7.80;;;;;;;12.14;85.90;99681.55;1761090;79;21450;-70
2021/09/03 04:24:12;;;;;;;12.65;8.58;;;;;;;12.23;86.02;99677.11;1756090;79;20935;-71
2021/09/03 04:26:39;;;;;;;9.25;7.37;;;;;;;12.32;86.02;99670.52;1759867;80;21406;-70
2021/09/03 04:29:06;;;;;;;17.23;7.73;;;;;;;12.52;86.17;99670.28;1759934;80;20900;-70
2021/09/03 04:31:32;;;;;;;12.58;7.83;;;;;;;12.73;86.12;99661.66;1750637;80;21415;-70
2021/09/03 04:33:59;;;;;;;13.50;7.53;;;;;;;13.12;86.30;99652.89;1752390;80;20967;-71
2021/09/03 04:36:25;;;;;;;10.97;7.20;;;;;;;13.56;86.10;99652.90;1752068;80;20924;-71
2021/09/03 04:38:52;;;;;;;12.35;6.70;;;;;;;13.98;85.74;99651.20;1752305;81;20923;-71
2021/09/03 04:41:19;;;;;;;11.48;7.15;;;;;;;14.07;85.07;99654.55;1748943;81;20931;-71
2021/09/03 04:43:46;;;;;;;12.58;7.08;;;;;;;14.14;85.05;99651.53;1756878;80;21051;-71
2021/09/03 04:46:13;;;;;;;8.63;6.10;;;;;;;14.26;85.18;99641.58;1757845;80;21442;-71
2021/09/03 04:48:39;;;;;;;11.17;6.40;;;;;;;14.51;85.32;99646.94;1757024;81;20972;-71
2021/09/03 04:51:06;;;;;;;11.30;6.37;;;;;;;14.81;85.11;99635.38;1755728;80;20896;-70
2021/09/03 04:53:32;;;;;;;9.35;5.95;;;;;;;15.28;85.25;99627.89;1762349;80;20912;-71
2021/09/03 04:55:59;;;;;;;15.72;6.37;;;;;;;15.77;85.05;99625.86;1758819;81;21045;-71
2021/09/03 04:58:26;;;;;;;13.65;6.25;;;;;;;16.23;84.82;99626.03;1761095;81;21438;-71
2021/09/03 05:00:52;;;;;;;11.88;6.15;;;;;;;16.87;84.98;99613.06;1766888;81;20899;-71
2021/09/03 05:03:19;;;;;;;12.65;6.50;;;;;;;17.22;83.55;99628.39;1758979;81;21434;-71
2021/09/03 05:05:46;;;;;;;28.42;8.03;;;;;;;17.03;82.93;99616.23;1759876;80;21965;-71
2021/09/03 05:08:14;;;;;;;19.37;6.87;;;;;;;17.27;83.79;99617.95;1760292;80;21155;-72
2021/09/03 05:10:41;;;;;;;39.95;9.65;;;;;;;17.38;82.76;99610.05;1756961;80;20914;-71
2021/09/03 05:13:08;;;;;;;17.57;7.08;;;;;;;17.27;82.93;99615.30;1759739;81;20943;-71
2021/09/03 05:15:40;;;;;;;29.98;12.28;;;;;;;17.52;83.23;99612.45;1758952;80;20908;-71
2021/09/03 05:18:06;;;;;;;30.40;13.72;;;;;;;17.97;83.18;99610.30;1708391;82;21484;-71
2021/09/03 05:20:33;;;;;;;93.92;20.32;;;;;;;18.58;83.50;99619.87;1736189;81;21210;-70
2021/09/03 05:23:00;;;;;;;49.25;11.75;;;;;;;19.11;83.10;99616.41;1730315;82;20940;-72
2021/09/03 05:25:30;;;;;;;36.98;11.45;;;;;;;19.63;82.73;99603.98;1731935;81;20915;-71
2021/09/03 05:27:57;;;;;;;34.45;9.73;;;;;;;19.84;81.80;99599.50;1737194;81;20954;-72
2021/09/03 05:30:26;;;;;;;30.32;10.63;;;;;;;20.15;81.61;99591.48;1723103;81;20956;-70
2021/09/03 05:32:53;;;;;;;51.83;12.70;;;;;;;20.40;81.28;99592.77;1727979;81;21078;-71
2021/09/03 05:35:24;;;;;;;123.80;26.33;;;;;;;20.54;80.79;99591.56;1721658;81;21654;-71
2021/09/03 05:37:49;;;;;;;58.28;10.85;;;;;;;20.66;80.36;99579.81;1728528;81;20885;-71
2021/09/03 05:40:16;;;;;;;;;;;;;;;20.71;79.75;99580.24;1733795;81;20884;-70
2021/09/03 05:42:42;;;;;;;;;;;;;;;20.76;79.20;99585.97;1762746;80;20106;-72
2021/09/03 05:45:09;;;;;;;60.48;14.20;;;;;;;20.77;78.77;99582.32;1759797;81;24772;-70
2021/09/03 05:47:42;;;;;;;36.33;10.03;;;;;;;20.88;79.45;99583.16;1760176;80;20886;-70
2021/09/03 05:50:10;;;;;;;138.28;25.65;;;;;;;21.00;78.70;99571.39;1760935;80;20955;-70
2021/09/03 05:52:36;;;;;;;126.30;23.20;;;;;;;21.01;78.59;99567.78;1760673;80;20937;-70
2021/09/03 05:55:03;;;;;;;94.40;20.60;;;;;;;21.08;78.19;99566.20;1762551;80;20881;-70
2021/09/03 05:57:30;;;;;;;70.90;16.95;;;;;;;21.00;77.82;99558.13;1769799;80;21053;-71
2021/09/03 05:59:59;;;;;;;143.25;23.73;;;;;;;21.19;78.13;99562.05;1761415;80;20884;-72
2021/09/03 06:02:26;;;;;;;60.98;13.53;;;;;;;21.31;77.21;99556.56;1740756;80;20878;-71
2021/09/03 06:04:53;;;;;;;68.07;11.03;;;;;;;21.18;76.78;99553.75;1768850;80;20866;-71
2021/09/03 06:07:20;;;;;;;84.77;20.62;;;;;;;21.15;76.79;99555.38;1753097;80;21462;-70
2021/09/03 06:09:46;;;;;;;83.00;17.27;;;;;;;21.21;76.68;99555.28;1744621;80;21057;-70
2021/09/03 06:12:13;;;;;;;194.75;27.80;;;;;;;20.98;75.58;99551.65;1751092;81;20965;-70
2021/09/03 06:14:40;;;;;;;94.32;19.37;;;;;;;21.00;76.05;99556.33;1747871;81;20895;-70
2021/09/03 06:17:07;;;;;;;253.45;33.40;;;;;;;21.34;76.22;99563.78;1748707;81;20954;-69
2021/09/03 06:19:33;;;;;;;255.57;49.15;;;;;;;21.44;75.55;99561.09;1745171;82;21038;-70
2021/09/03 06:22:04;;;;;;;;;;;;;;;21.66;75.34;99565.20;1748384;82;21092;-70
2021/09/03 06:24:32;;;;;;;190.22;33.92;;;;;;;21.55;74.01;99568.88;1746187;81;20148;-70
2021/09/03 06:27:05;;;;;;;99.20;21.65;;;;;;;21.55;74.45;99556.09;1739632;81;21508;-70
2021/09/03 06:29:45;;;;;;;340.40;48.08;;;;;;;21.46;74.09;99557.81;1746584;81;21491;-72
2021/09/03 06:32:16;;;;;;;382.43;59.15;;;;;;;21.18;73.16;99563.05;1746789;81;20958;-72
2021/09/03 06:34:50;;;;;;;136.35;29.82;;;;;;;20.50;72.60;99556.50;1723499;82;21580;-72
2021/09/03 06:37:18;;;;;;;244.32;43.87;;;;;;;19.87;72.40;99559.48;1753272;81;20952;-72
2021/09/03 06:39:46;;;;;;;302.87;55.60;;;;;;;19.10;72.44;99573.23;1749532;81;20920;-72
2021/09/03 06:42:13;;;;;;;121.30;21.45;;;;;;;18.51;72.81;99579.89;1747595;81;20907;-70
2021/09/03 06:44:43;;;;;;;105.95;20.85;;;;;;;18.00;72.92;99576.55;1747324;82;20932;-69
2021/09/03 06:47:16;;;;;;;23.70;7.05;;;;;;;17.44;72.83;99583.17;1752086;81;21040;-69
2021/09/03 06:49:45;;;;;;;155.05;26.33;;;;;;;16.87;72.40;99580.10;1749177;81;20946;-69
2021/09/03 06:52:14;;;;;;;154.97;24.72;;;;;;;16.41;72.98;99568.98;1752671;81;20920;-70
2021/09/03 06:54:41;;;;;;;215.30;34.35;;;;;;;16.19;73.45;99570.59;1726317;81;20967;-70
2021/09/03 06:57:08;;;;;;;;;;;;;;;16.00;73.54;99580.77;1741565;81;20956;-69
2021/09/03 06:59:34;;;;;;;213.47;40.78;;;;;;;15.79;73.80;99572.59;1732306;81;20559;-69
2021/09/03 07:02:01;;;;;;;65.95;13.75;;;;;;;15.63;73.77;99568.88;1741762;82;21600;-69
2021/09/03 07:04:29;;;;;;;161.82;31.12;;;;;;;15.54;74.05;99565.56;1753033;81;21836;-69
2021/09/03 07:06:57;;;;;;;150.65;30.40;;;;;;;15.49;74.18;99574.25;1756449;80;20939;-69
2021/09/03 07:09:24;;;;;;;173.68;32.53;;;;;;;15.47;74.32;99569.59;1763880;79;21507;-69
2021/09/03 07:11:50;;;;;;;145.25;26.65;;;;;;;15.45;74.41;99560.00;1765070;79;21109;-76
2021/09/03 07:14:18;;;;;;;289.00;46.68;;;;;;;15.45;74.57;99562.62;1765133;79;20893;-71
2021/09/03 07:16:45;;;;;;;154.23;30.80;;;;;;;15.48;74.64;99563.37;1763019;80;20918;-69
2021/09/03 07:19:13;;;;;;;192.32;37.30;;;;;;;15.56;74.76;99558.41;1761383;79;21551;-69
2021/09/03 07:21:40;;;;;;;128.95;28.30;;;;;;;15.62;74.87;99560.60;1764684;79;20963;-70
2021/09/03 07:24:07;;;;;;;199.27;45.63;;;;;;;15.65;74.89;99551.17;1759913;79;21049;-68
2021/09/03 07:26:34;;;;;;;196.82;48.58;;;;;;;15.68;75.01;99562.83;1762906;80;21743;-69
2021/09/03 07:29:08;;;;;;;146.00;30.80;;;;;;;15.75;75.09;99564.09;1768584;79;20931;-70
2021/09/03 07:31:33;;;;;;;148.32;28.98;;;;;;;15.81;75.21;99562.33;1765455;79;21397;-68
2021/09/03 07:34:01;;;;;;;176.87;30.45;;;;;;;15.91;75.19;99553.31;1767695;79;21512;-69
2021/09/03 07:36:28;;;;;;;188.97;27.70;;;;;;;15.94;75.16;99553.56;1762741;80;21134;-69
2021/09/03 07:38:54;;;;;;;96.65;20.65;;;;;;;15.97;75.27;99546.77;1764189;79;21399;-69
2021/09/03 07:41:23;;;;;;;69.15;16.93;;;;;;;15.96;75.25;99545.89;1749923;79;25624;-68
2021/09/03 07:43:50;;;;;;;104.87;19.90;;;;;;;16.01;75.39;99523.19;1758553;79;20945;-69
2021/09/03 07:46:17;;;;;;;184.65;38.53;;;;;;;16.09;75.63;99537.95;1759841;79;20950;-72
2021/09/03 07:48:44;;;;;;;115.62;20.70;;;;;;;16.25;75.70;99539.84;1766150;79;21844;-72
2021/09/03 07:51:11;;;;;;;66.07;14.23;;;;;;;16.39;75.76;99530.08;1758112;80;21476;-72
2021/09/03 07:53:37;;;;;;;89.40;21.10;;;;;;;16.45;75.56;99537.52;1767195;79;20859;-71
2021/09/03 07:56:04;;;;;;;96.53;22.62;;;;;;;16.50;75.65;99540.17;1763510;80;20947;-70
2021/09/03 07:58:31;;;;;;;106.37;22.65;;;;;;;16.62;75.73;99530.50;1765248;79;20879;-70
2021/09/03 08:01:04;;;;;;;233.02;46.37;;;;;;;16.70;75.65;99528.13;1774961;79;21017;-70
2021/09/03 08:04:17;;;;;;;216.97;41.73;;;;;;;16.74;75.67;99532.20;1670031;85;20931;-71
2021/09/03 08:10:12;;;;;;;101.27;26.15;;;;;;;16.71;75.54;99527.16;1621334;86;21939;-70
2021/09/03 08:12:50;;;;;;;103.87;25.45;;;;;;;16.67;75.96;99532.31;1574668;89;20937;-72
2021/09/03 08:15:31;;;;;;;112.25;22.22;;;;;;;16.74;75.82;99524.29;1572669;90;21146;-69
2021/09/03 08:18:10;;;;;;;247.93;45.12;;;;;;;16.68;75.73;99532.67;1555729;91;20975;-70
2021/09/03 08:21:23;;;;;;;212.12;40.92;;;;;;;16.69;75.94;99535.69;1548709;91;21079;-70
2021/09/03 08:23:58;;;;;;;134.80;27.02;;;;;;;16.72;76.14;99538.54;1484575;92;21018;-69
2021/09/03 08:26:41;;;;;;;88.57;22.30;;;;;;;16.80;76.15;99535.36;1529783;92;21115;-69
2021/09/03 08:29:28;;;;;;;;;;;;;;;;;;;;;
2021/09/03 08:32:11;;;;;;;164.03;31.70;;;;;;;16.90;76.16;99539.83;1479579;94;21060;-69
2021/09/03 08:34:53;;;;;;;163.30;32.98;;;;;;;16.97;76.04;99545.45;1525452;93;21087;-70
2021/09/03 08:37:31;;;;;;;57.13;16.70;;;;;;;16.94;76.11;99549.66;1530671;93;20974;-69
2021/09/03 08:42:39;;;;;;;224.20;39.95;;;;;;;16.82;76.02;99554.55;1542019;91;20990;-70
2021/09/03 08:45:10;;;;;;;183.70;35.65;;;;;;;16.75;76.13;99566.02;1533970;92;21099;-70
2021/09/03 08:47:41;;;;;;;205.43;37.03;;;;;;;16.73;76.20;99562.17;1533936;92;21004;-70
2021/09/03 08:50:11;;;;;;;203.20;36.77;;;;;;;16.64;75.98;99564.19;1533245;92;20976;-69
2021/09/03 08:52:44;;;;;;;240.03;46.73;;;;;;;16.53;76.24;99565.47;1562155;90;21013;-70
2021/09/03 08:55:13;;;;;;;237.80;46.83;;;;;;;16.50;76.36;99565.70;1534178;92;21886;-70
2021/09/03 08:57:42;;;;;;;266.55;47.25;;;;;;;16.41;76.34;99561.08;1560876;90;20929;-71
2021/09/03 09:00:32;;;;;;;207.22;42.08;;;;;;;16.33;76.41;99566.46;1539725;92;21018;-70
2021/09/03 09:03:01;;;;;;;115.52;28.50;;;;;;;16.26;76.59;99574.44;1545436;91;20968;-69
2021/09/03 09:05:54;;;;;;;53.58;16.75;;;;;;;16.24;76.67;99564.96;1549081;91;20995;-69
2021/09/03 09:08:24;;;;;;;132.45;26.95;;;;;;;16.31;76.87;99563.57;1553880;90;21066;-69
2021/09/03 09:10:56;;;;;;;137.10;39.08;;;;;;;16.39;76.79;99551.16;1565345;90;21502;-69
2021/09/03 09:13:27;;;;;;;145.43;35.05;;;;;;;16.31;76.51;99572.31;1568164;90;21606;-69
2021/09/03 09:16:06;;;;;;;102.62;19.82;;;;;;;16.23;76.70;99561.49;1563751;90;20997;-69
2021/09/03 09:18:46;;;;;;;44.08;15.50;;;;;;;16.10;76.51;99564.20;1565002;90;21041;-71
2021/09/03 09:21:35;;;;;;;11.45;7.22;;;;;;;15.97;76.56;99580.99;1567443;90;21086;-70
2021/09/03 09:24:06;;;;;;;13.58;6.30;;;;;;;15.76;77.13;99588.61;1562978;90;20989;-70
2021/09/03 09:26:57;;;;;;;16.87;7.75;;;;;;;15.42;78.55;99580.42;1568425;90;21013;-69
2021/09/03 09:29:27;;;;;;;15.83;7.55;;;;;;;15.16;78.95;99587.48;1567371;90;20993;-69
2021/09/03 09:32:06;;;;;;;18.05;7.55;;;;;;;15.04;78.65;99580.42;1565139;90;21012;-69
2021/09/03 09:34:39;;;;;;;14.18;7.58;;;;;;;14.99;79.41;99593.42;1567516;90;21062;-69
2021/09/03 09:37:13;;;;;;;12.85;7.65;;;;;;;14.85;79.51;99604.50;1565355;90;20996;-71
2021/09/03 09:39:47;;;;;;;56.40;15.78;;;;;;;14.75;79.98;99606.88;1633253;85;20969;-69
2021/09/03 09:42:30;;;;;;;24.00;13.70;;;;;;;14.82;79.67;99602.91;1722147;81;20931;-69
2021/09/03 09:45:16;;;;;;;26.37;9.10;;;;;;;14.90;79.08;99592.73;1762985;81;20975;-70
2021/09/03 09:47:44;;;;;;;45.20;12.77;;;;;;;14.79;79.86;99605.75;1729191;81;21801;-70
2021/09/03 09:50:28;;;;;;;;;;;;;;;14.77;79.58;99594.48;1740420;81;20905;-69
2021/09/03 09:53:10;;;;;;;14.93;7.80;;;;;;;14.76;80.04;99605.95;1729220;81;20100;-69
2021/09/03 09:55:44;;;;;;;52.95;13.60;;;;;;;14.81;79.69;99593.33;1734586;81;20949;-71
2021/09/03 09:58:21;;;;;;;15.45;8.28;;;;;;;14.92;79.45;99598.70;1704327;83;21448;-69
2021/09/03 10:00:47;;;;;;;24.20;8.80;;;;;;;15.04;79.22;99596.20;1737900;81;21054;-69
2021/09/03 10:03:18;;;;;;;51.35;13.93;;;;;;;15.17;78.87;99599.68;1757240;81;21157;-69
2021/09/03 10:05:45;;;;;;;32.85;9.70;;;;;;;15.26;78.94;99599.05;1767620;80;20900;-69
2021/09/03 10:08:13;;;;;;;14.93;6.95;;;;;;;15.53;78.85;99595.47;1749919;80;21451;-70
2021/09/03 10:10:42;;;;;;;19.42;9.00;;;;;;;15.71;78.24;99598.17;1746306;81;20971;-70
2021/09/03 10:13:09;;;;;;;47.85;14.45;;;;;;;15.91;77.66;99578.77;1754357;81;21047;-69
2021/09/03 10:15:36;;;;;;;15.15;6.58;;;;;;;16.11;78.06;99599.27;1754454;81;20892;-70
2021/09/03 10:18:03;;;;;;;17.70;7.62;;;;;;;16.18;77.45;99596.54;1753354;81;20959;-69
2021/09/03 10:20:30;;;;;;;32.83;9.13;;;;;;;16.27;77.42;99598.53;1746178;81;20955;-69
2021/09/03 10:22:56;;;;;;;28.32;10.58;;;;;;;16.49;77.57;99596.94;1749388;81;21537;-69
2021/09/03 10:25:23;;;;;;;28.45;10.08;;;;;;;16.59;75.32;99605.86;1741796;81;21051;-70
2021/09/03 10:28:07;;;;;;;145.02;25.57;;;;;;;16.58;76.75;99596.73;1744958;81;20912;-70
2021/09/03 10:30:34;;;;;;;263.05;43.10;;;;;;;16.63;77.02;99598.55;1746021;81;21471;-70
2021/09/03 10:33:11;;;;;;;70.83;13.45;;;;;;;17.00;77.52;99594.05;1739907;81;20868;-71
2021/09/03 10:35:38;;;;;;;22.93;9.03;;;;;;;17.20;76.63;99580.16;1744537;81;21748;-71
2021/09/03 10:38:31;;;;;;;227.15;42.70;;;;;;;17.34;76.30;99582.22;1748560;81;21779;-70
2021/09/03 10:40:57;;;;;;;279.65;47.80;;;;;;;17.46;76.84;99575.98;1746875;81;20927;-70
2021/09/03 10:43:46;;;;;;;23.95;10.30;;;;;;;17.61;76.30;99585.32;1748472;81;20938;-71
2021/09/03 10:46:16;;;;;;;40.45;11.40;;;;;;;17.70;75.82;99597.44;1743944;81;20904;-71
2021/09/03 10:48:50;;;;;;;75.85;17.35;;;;;;;17.74;75.59;99602.86;1742304;82;21638;-70
2021/09/03 10:51:35;;;;;;;375.10;67.92;;;;;;;17.73;75.18;99595.88;1744040;82;21032;-69
2021/09/03 10:54:17;;;;;;;233.75;42.50;;;;;;;17.79;75.85;99598.09;1748083;81;20924;-70
2021/09/03 10:57:01;;;;;;;88.55;21.27;;;;;;;17.74;75.57;99590.48;1741536;81;20931;-70
2021/09/03 10:59:27;;;;;;;116.70;24.07;;;;;;;17.58;74.76;99596.13;1747954;81;21005;-69
2021/09/03 11:02:00;;;;;;;280.30;46.25;;;;;;;17.38;74.62;99595.05;1744022;81;20900;-70
2021/09/03 11:04:25;;;;;;;189.95;34.48;;;;;;;17.38;75.39;99588.93;1742263;82;21495;-70
2021/09/03 11:06:56;;;;;;;285.98;48.28;;;;;;;17.31;75.00;99604.86;1741355;80;20884;-69
2021/09/03 11:09:27;;;;;;;257.32;48.95;;;;;;;17.33;75.16;99602.95;1763619;80;20941;-69
2021/09/03 11:11:57;;;;;;;29.70;10.30;;;;;;;17.31;75.13;99600.91;1752462;80;20959;-69
2021/09/03 11:14:29;;;;;;;75.67;17.05;;;;;;;17.35;74.78;99605.00;1767733;79;21417;-70
2021/09/03 11:17:03;;;;;;;107.07;17.92;;;;;;;17.46;74.83;99605.02;1764629;80;21098;-70
2021/09/03 11:19:34;;;;;;;325.27;59.70;;;;;;;17.77;75.19;99606.57;1757297;79;20897;-70
2021/09/03 11:22:30;;;;;;;19.65;9.80;;;;;;;18.03;75.06;99598.75;1760820;80;20892;-69
2021/09/03 11:27:55;;;;;;;319.20;58.38;;;;;;;17.99;73.22;99607.06;1738243;80;21531;-70
2021/09/03 11:30:22;;;;;;;43.73;12.35;;;;;;;17.93;74.20;99600.47;1764422;80;21194;-69
2021/09/03 11:32:49;;;;;;;159.65;27.55;;;;;;;18.00;73.54;99609.56;1767448;80;21573;-71
2021/09/03 11:35:16;;;;;;;50.83;12.98;;;;;;;18.03;74.06;99611.96;1767870;80;20927;-71
2021/09/03 11:37:47;;;;;;;33.18;9.90;;;;;;;18.09;73.99;99618.09;1756485;80;21427;-71
2021/09/03 11:40:26;;;;;;;25.95;8.30;;;;;;;18.14;74.03;99610.27;1761655;80;20966;-71
2021/09/03 11:43:05;;;;;;;16.57;8.43;;;;;;;18.20;73.45;99615.05;1741024;80;21211;-71
2021/09/03 11:45:42;;;;;;;20.05;7.80;;;;;;;18.03;72.57;99617.24;1758293;79;20925;-71
2021/09/03 11:48:16;;;;;;;15.03;7.75;;;;;;;17.79;72.78;99611.30;1772195;80;20902;-71